Time;durP1;ratioP1;P1;durP2;ratioP2;P2;SDS_P1;SDS_P2;PMS_P1;PMS_P2;Temp;Humidity;BMP_temperature;BMP_pressure;BME280_temperature;BME280_humidity;BME280_pressure;Samples;Min_cycle;Max_cycle;Signal;HPM_P1;HPM_P2
2023/05/18 00:01:07;;;;;;;0.00;0.00;;;;;;;12.57;64.49;101487.31;6253190;22;20005;-74
2023/05/18 00:03:32;;;;;;;0.00;0.00;;;;;;;12.77;64.51;101512.53;6150358;23;20013;-75
2023/05/18 00:06:03;;;;;;;0.00;0.00;;;;;;;12.71;64.59;101508.88;6143681;23;20443;-76
2023/05/18 00:08:38;;;;;;;0.00;0.00;;;;;;;12.71;64.27;101514.38;6125397;23;20077;-75
2023/05/18 00:11:07;;;;;;;0.00;0.00;;;;;;;12.57;64.32;101491.94;6119818;23;20154;-74
2023/05/18 00:13:33;;;;;;;0.00;0.00;;;;;;;12.68;64.68;101515.72;6147352;23;20052;-74
2023/05/18 00:15:59;;;;;;;0.00;0.00;;;;;;;12.64;64.56;101514.56;6143483;23;20017;-75
2023/05/18 00:18:29;;;;;;;0.00;0.00;;;;;;;12.46;64.76;101490.16;6147889;23;20001;-74
2023/05/18 00:20:59;;;;;;;0.00;0.00;;;;;;;12.43;65.42;101496.16;6143548;23;20005;-75
2023/05/18 00:23:31;;;;;;;0.00;0.00;;;;;;;12.56;65.43;101517.75;6147804;23;20002;-74
2023/05/18 00:26:01;;;;;;;0.00;0.00;;;;;;;12.41;65.89;101499.13;6140851;23;20128;-74
2023/05/18 00:28:29;;;;;;;0.00;0.00;;;;;;;12.29;66.11;101501.16;6145565;23;20097;-73
2023/05/18 00:30:58;;;;;;;0.00;0.00;;;;;;;12.31;66.39;101516.28;6274178;22;20016;-76
2023/05/18 00:33:28;;;;;;;0.00;0.00;;;;;;;12.15;66.79;101500.66;6118063;23;20017;-73
2023/05/18 00:35:56;;;;;;;0.00;0.00;;;;;;;12.14;67.21;101509.97;6148041;23;20012;-73
2023/05/18 00:38:21;;;;;;;0.00;0.00;;;;;;;12.04;67.44;101496.94;6269135;22;20017;-74
2023/05/18 00:40:47;;;;;;;0.00;0.00;;;;;;;12.09;67.27;101513.47;6118560;22;20021;-73
2023/05/18 00:43:12;;;;;;;0.00;0.00;;;;;;;12.08;67.47;101509.06;6273859;22;20005;-74
2023/05/18 00:45:38;;;;;;;0.00;0.00;;;;;;;12.11;67.29;101515.97;6246684;22;20024;-73
2023/05/18 00:48:03;;;;;;;0.00;0.00;;;;;;;12.16;67.22;101524.25;6120650;23;20009;-74
2023/05/18 00:50:29;;;;;;;0.00;0.00;;;;;;;12.23;67.53;101533.16;6137278;23;20691;-75
2023/05/18 00:52:55;;;;;;;0.00;0.00;;;;;;;12.20;67.39;101526.25;6148406;23;20017;-74
2023/05/18 00:55:21;;;;;;;0.00;0.00;;;;;;;12.12;67.21;101512.97;6143975;23;20001;-74
2023/05/18 00:57:47;;;;;;;0.00;0.00;;;;;;;12.24;66.83;101526.59;6147575;23;20005;-76
2023/05/18 01:00:15;;;;;;;0.00;0.00;;;;;;;12.16;67.32;101524.25;6279064;22;20455;-76
2023/05/18 01:02:44;;;;;;;0.00;0.00;;;;;;;12.12;67.24;101523.09;6278462;22;20085;-74
2023/05/18 01:05:10;;;;;;;0.00;0.00;;;;;;;12.16;67.45;101543.47;6150284;23;20021;-75
2023/05/18 01:07:43;;;;;;;0.00;0.00;;;;;;;12.08;68.00;101527.44;6143944;23;20005;-74
2023/05/18 01:10:10;;;;;;;0.00;0.00;;;;;;;12.06;67.24;101524.91;6148291;23;20010;-75
2023/05/18 01:13:05;;;;;;;0.00;0.00;;;;;;;12.11;67.57;101540.66;6144686;23;20005;-75
2023/05/18 01:15:37;;;;;;;0.00;0.00;;;;;;;12.02;67.69;101521.84;6148340;22;20005;-75
2023/05/18 01:18:27;;;;;;;0.00;0.00;;;;;;;12.08;68.09;101530.19;6144424;23;20002;-73
2023/05/18 01:21:17;;;;;;;0.00;0.00;;;;;;;12.09;68.37;101540.03;6142161;23;20012;-73
2023/05/18 01:24:07;;;;;;;0.00;0.00;;;;;;;12.10;68.51;101536.25;6143496;23;20025;-75
2023/05/18 01:26:38;;;;;;;0.00;0.00;;;;;;;12.10;67.99;101530.75;6141977;23;20340;-75
2023/05/18 01:29:08;;;;;;;0.00;0.00;;;;;;;12.05;68.18;101529.59;6142126;23;20316;-74
2023/05/18 01:31:34;;;;;;;0.00;0.00;;;;;;;12.05;68.66;101534.25;6137834;23;20009;-78
2023/05/18 01:33:59;;;;;;;0.00;0.00;;;;;;;11.93;68.20;101520.63;6145278;23;20372;-74
2023/05/18 01:36:25;;;;;;;0.00;0.00;;;;;;;12.00;68.18;101532.25;6247596;22;20009;-75
2023/05/18 01:38:51;;;;;;;0.00;0.00;;;;;;;11.95;68.81;101523.94;6270454;22;20379;-75
2023/05/18 01:41:26;;;;;;;0.00;0.00;;;;;;;11.96;68.79;101535.72;6273530;22;20022;-73
2023/05/18 01:44:11;;;;;;;0.00;0.00;;;;;;;11.90;68.36;101533.94;6139340;22;20010;-74
2023/05/18 01:46:52;;;;;;;0.00;0.00;;;;;;;11.89;68.59;101535.88;6143447;23;20020;-74
2023/05/18 01:49:38;;;;;;;0.00;0.00;;;;;;;11.82;68.92;101540.66;6142191;23;20001;-74
2023/05/18 01:52:09;;;;;;;0.00;0.00;;;;;;;11.81;69.06;101533.50;6139707;23;20631;-75
2023/05/18 01:54:37;;;;;;;0.00;0.00;;;;;;;11.77;69.34;101532.34;6144707;23;20002;-75
2023/05/18 01:57:05;;;;;;;0.00;0.00;;;;;;;11.77;69.46;101538.69;6141650;23;20010;-75
2023/05/18 01:59:31;;;;;;;0.00;0.00;;;;;;;11.76;69.46;101530.69;6144628;23;20104;-75
2023/05/18 02:02:02;;;;;;;0.00;0.00;;;;;;;11.77;69.47;101535.09;6219556;23;20313;-75
2023/05/18 02:04:27;;;;;;;0.00;0.00;;;;;;;11.77;70.06;101533.19;6145265;23;20002;-75
2023/05/18 02:06:54;;;;;;;0.00;0.00;;;;;;;11.70;69.88;101529.78;6145488;23;20020;-76
2023/05/18 02:09:20;;;;;;;0.00;0.00;;;;;;;11.64;69.61;101519.81;6139343;23;20013;-75
2023/05/18 02:11:46;;;;;;;0.00;0.00;;;;;;;11.61;69.92;101528.50;6273908;22;20029;-75
2023/05/18 02:14:12;;;;;;;0.00;0.00;;;;;;;11.56;69.79;101526.50;6269098;22;20605;-75
2023/05/18 02:16:37;;;;;;;0.00;0.00;;;;;;;11.57;70.03;101539.13;6248489;22;20158;-74
2023/05/18 02:19:03;;;;;;;0.00;0.00;;;;;;;11.53;70.43;101532.47;6140931;23;20371;-74
2023/05/18 02:21:28;;;;;;;0.00;0.00;;;;;;;11.38;70.39;101513.03;6146665;23;20370;-74
2023/05/18 02:23:54;;;;;;;0.00;0.00;;;;;;;11.53;70.35;101532.47;6143233;23;20036;-74
2023/05/18 02:26:20;;;;;;;0.00;0.00;;;;;;;11.49;71.08;101525.81;6245725;22;20013;-74
2023/05/18 02:28:45;;;;;;;0.00;0.00;;;;;;;11.48;71.62;101537.88;6145412;23;20010;-75
2023/05/18 02:31:11;;;;;;;0.00;0.00;;;;;;;11.39;71.43;101528.38;6143092;23;20017;-75
2023/05/18 02:33:40;;;;;;;0.00;0.00;;;;;;;11.38;71.83;101540.41;6273285;22;20012;-75
2023/05/18 02:36:07;;;;;;;0.00;0.00;;;;;;;11.38;72.03;101532.19;6145285;23;20014;-74
2023/05/18 02:38:39;;;;;;;0.00;0.00;;;;;;;11.39;71.73;101539.31;6144014;23;20041;-74
2023/05/18 02:41:04;;;;;;;0.00;0.00;;;;;;;11.39;72.01;101531.09;6140586;23;20044;-76
2023/05/18 02:43:30;;;;;;;0.00;0.00;;;;;;;11.34;72.30;101529.91;6274166;22;20045;-74
2023/05/18 02:45:55;;;;;;;0.00;0.00;;;;;;;11.33;71.91;101528.28;6142154;23;20005;-73
2023/05/18 02:48:21;;;;;;;0.00;0.00;;;;;;;11.38;71.99;101534.94;6143316;23;20014;-75
2023/05/18 02:50:50;;;;;;;0.00;0.00;;;;;;;11.34;72.12;101535.41;6120421;22;20018;-74
2023/05/18 02:53:15;;;;;;;0.00;0.00;;;;;;;11.33;72.22;101528.28;6240075;22;20010;-74
2023/05/18 02:55:42;;;;;;;0.00;0.00;;;;;;;11.33;71.81;101532.91;6249079;22;20020;-74
2023/05/18 02:58:08;;;;;;;0.00;0.00;;;;;;;11.35;72.52;101530.78;6241006;22;20016;-74
2023/05/18 03:00:33;;;;;;;0.00;0.00;;;;;;;11.32;72.19;101536.75;6143724;23;20009;-74
2023/05/18 03:03:01;;;;;;;0.00;0.00;;;;;;;11.25;72.67;101528.66;6117421;22;20092;-73
2023/05/18 03:05:27;;;;;;;0.00;0.00;;;;;;;11.26;72.71;101533.06;6244467;22;20013;-74
2023/05/18 03:07:53;;;;;;;0.00;0.00;;;;;;;11.26;72.41;101534.97;6119649;23;20157;-74
2023/05/18 03:10:19;;;;;;;0.00;0.00;;;;;;;11.22;72.49;101529.16;6140926;23;20012;-74
2023/05/18 03:12:45;;;;;;;0.00;0.00;;;;;;;11.23;72.67;101533.56;6144965;23;20013;-74
2023/05/18 03:15:12;;;;;;;0.00;0.00;;;;;;;11.20;72.64;101534.03;6139344;23;20067;-75
2023/05/18 03:17:39;;;;;;;0.00;0.00;;;;;;;11.18;72.88;101536.19;6145232;23;20005;-74
2023/05/18 03:20:06;;;;;;;0.00;0.00;;;;;;;11.13;72.68;101525.13;6113389;23;20017;-75
2023/05/18 03:22:32;;;;;;;0.00;0.00;;;;;;;11.15;73.26;101533.94;6142243;23;20063;-74
2023/05/18 03:24:57;;;;;;;0.00;0.00;;;;;;;10.92;73.04;101502.81;6146639;23;20025;-74
2023/05/18 03:27:26;;;;;;;0.00;0.00;;;;;;;10.95;73.73;101529.72;6140065;23;20060;-74
2023/05/18 03:29:52;;;;;;;0.00;0.00;;;;;;;10.90;73.88;101520.56;6144858;23;20015;-75
2023/05/18 03:32:18;;;;;;;0.00;0.00;;;;;;;10.90;74.11;101534.25;6241684;22;20327;-74
2023/05/18 03:34:44;;;;;;;0.00;0.00;;;;;;;10.86;73.74;101533.06;6144056;23;20433;-73
2023/05/18 03:37:09;;;;;;;0.00;0.00;;;;;;;10.82;73.89;101529.97;6140458;23;20023;-73
2023/05/18 03:39:35;;;;;;;0.00;0.00;;;;;;;10.77;74.00;101527.13;6116944;22;20387;-74
2023/05/18 03:42:00;;;;;;;0.00;0.00;;;;;;;10.76;74.38;101522.72;6247738;22;20344;-74
2023/05/18 03:44:26;;;;;;;0.00;0.00;;;;;;;10.78;74.17;101520.59;6135826;23;20728;-73
2023/05/18 03:46:52;;;;;;;0.00;0.00;;;;;;;10.78;74.47;101537.00;6141349;23;20447;-75
2023/05/18 03:49:17;;;;;;;0.00;0.00;;;;;;;10.72;74.78;101521.53;6113973;23;20013;-74
2023/05/18 03:51:43;;;;;;;0.00;0.00;;;;;;;10.75;74.62;101532.84;6142707;23;20009;-73
2023/05/18 03:54:08;;;;;;;0.00;0.00;;;;;;;10.76;74.92;101533.66;6269714;22;20088;-74
2023/05/18 03:56:34;;;;;;;0.00;0.00;;;;;;;10.72;74.13;101527.84;6141586;22;20016;-74
2023/05/18 03:58:59;;;;;;;0.00;0.00;;;;;;;10.73;74.83;101529.50;6118342;23;20017;-73
2023/05/18 04:01:25;;;;;;;0.00;0.00;;;;;;;10.76;74.81;101533.66;6267894;22;20021;-74
2023/05/18 04:03:50;;;;;;;0.03;0.03;;;;;;;10.78;74.13;101537.00;6143958;23;20020;-74
2023/05/18 04:06:16;;;;;;;0.10;0.10;;;;;;;10.79;74.44;101534.03;6139181;23;20012;-74
2023/05/18 04:08:42;;;;;;;0.00;0.00;;;;;;;10.80;74.34;101523.91;6143009;23;20006;-74
2023/05/18 04:11:07;;;;;;;0.00;0.00;;;;;;;10.81;74.65;101531.88;6248025;22;20009;-74
2023/05/18 04:13:37;;;;;;;0.00;0.00;;;;;;;10.85;74.89;101536.84;6140139;23;20044;-75
2023/05/18 04:16:03;;;;;;;0.00;0.00;;;;;;;10.85;74.85;101528.63;6145127;23;20479;-73
2023/05/18 04:18:29;;;;;;;0.00;0.00;;;;;;;10.91;74.71;101534.00;6139043;22;20010;-74
2023/05/18 04:20:55;;;;;;;0.00;0.00;;;;;;;10.92;74.64;101532.09;6142249;22;20091;-74
2023/05/18 04:23:20;;;;;;;0.00;0.00;;;;;;;10.89;74.34;101530.66;6139109;23;20009;-74
2023/05/18 04:25:46;;;;;;;0.00;0.00;;;;;;;10.93;74.55;101529.09;6143587;23;20048;-74
2023/05/18 04:28:11;;;;;;;0.00;0.00;;;;;;;10.92;74.64;101532.94;6115317;23;20009;-73
2023/05/18 04:30:37;;;;;;;0.00;0.00;;;;;;;11.00;75.00;101535.28;6246777;22;20032;-73
2023/05/18 04:33:05;;;;;;;0.00;0.00;;;;;;;10.90;75.11;101518.63;6144316;23;20332;-73
2023/05/18 04:35:30;;;;;;;0.00;0.00;;;;;;;10.87;74.94;101524.59;6115755;23;20028;-74
2023/05/18 04:37:56;;;;;;;0.00;0.00;;;;;;;10.95;75.62;101532.44;6120108;23;20580;-74
2023/05/18 04:40:22;;;;;;;0.00;0.00;;;;;;;10.94;75.08;101536.25;6144360;23;20009;-74
2023/05/18 04:42:47;;;;;;;0.00;0.00;;;;;;;10.93;75.36;101529.09;6270211;22;20001;-73
2023/05/18 04:45:18;;;;;;;0.00;0.00;;;;;;;10.94;75.29;101524.47;6121144;22;20009;-74
2023/05/18 04:47:45;;;;;;;0.00;0.00;;;;;;;11.04;75.45;101529.31;6143024;23;20073;-74
2023/05/18 04:50:13;;;;;;;0.00;0.00;;;;;;;11.10;74.98;101533.84;6119704;23;20013;-74
2023/05/18 04:52:40;;;;;;;0.00;0.00;;;;;;;11.14;74.79;101522.16;6140422;23;20487;-72
2023/05/18 04:55:09;;;;;;;0.00;0.00;;;;;;;11.21;74.78;101530.22;6248374;22;20016;-73
2023/05/18 04:57:35;;;;;;;0.00;0.00;;;;;;;11.23;75.24;101530.81;6141641;23;20009;-74
2023/05/18 05:00:04;;;;;;;0.00;0.00;;;;;;;11.32;74.49;101534.81;6144342;23;20516;-74
2023/05/18 05:02:31;;;;;;;0.00;0.00;;;;;;;11.36;75.19;101532.44;6143889;23;20021;-74
2023/05/18 05:04:56;;;;;;;0.00;0.00;;;;;;;11.42;74.57;101539.69;6243955;22;20014;-74
2023/05/18 05:07:21;;;;;;;0.00;0.00;;;;;;;11.49;74.75;101536.78;6247841;22;20005;-74
2023/05/18 05:09:47;;;;;;;0.00;0.00;;;;;;;11.56;74.04;101547.59;6116526;23;20014;-75
2023/05/18 05:12:12;;;;;;;0.00;0.00;;;;;;;11.59;74.25;101542.44;6118856;22;20005;-74
2023/05/18 05:14:37;;;;;;;0.00;0.00;;;;;;;11.69;74.60;101544.53;6270556;22;20086;-75
2023/05/18 05:17:03;;;;;;;0.00;0.00;;;;;;;11.73;73.97;101537.50;6143894;23;20086;-74
2023/05/18 05:19:29;;;;;;;0.00;0.00;;;;;;;11.79;73.57;101538.44;6143602;23;20088;-74
2023/05/18 05:21:54;;;;;;;0.00;0.00;;;;;;;11.86;74.08;101555.53;6269823;22;20021;-73
2023/05/18 05:24:19;;;;;;;0.00;0.00;;;;;;;11.80;73.71;101542.84;6144515;23;20014;-74
2023/05/18 05:26:45;;;;;;;0.00;0.00;;;;;;;11.81;73.88;101556.28;6269546;22;20980;-74
2023/05/18 05:29:10;;;;;;;0.10;0.10;;;;;;;11.88;74.25;101550.63;6118871;23;20031;-75
2023/05/18 05:31:35;;;;;;;0.00;0.00;;;;;;;12.00;74.28;101548.69;6114296;23;20018;-75
2023/05/18 05:34:01;;;;;;;0.00;0.00;;;;;;;12.19;73.63;101540.22;6141463;22;20035;-75
2023/05/18 05:36:26;;;;;;;0.00;0.00;;;;;;;12.29;73.60;101534.88;6248367;22;20002;-76
2023/05/18 05:38:52;;;;;;;0.00;0.00;;;;;;;12.51;72.89;101543.19;6140330;23;20036;-77
2023/05/18 05:41:17;;;;;;;0.00;0.00;;;;;;;12.65;71.95;101532.69;6142390;23;20192;-75
2023/05/18 05:43:43;;;;;;;0.00;0.00;;;;;;;12.73;72.35;101529.50;6143700;22;20009;-75
2023/05/18 05:46:08;;;;;;;0.00;0.00;;;;;;;12.84;71.92;101535.13;6243712;22;20005;-75
2023/05/18 05:48:34;;;;;;;0.00;0.00;;;;;;;13.00;71.23;101550.72;6145001;23;20051;-76
2023/05/18 05:50:59;;;;;;;0.00;0.00;;;;;;;13.06;71.22;101540.63;6114607;23;20044;-75
2023/05/18 05:53:25;;;;;;;0.00;0.00;;;;;;;13.21;71.20;101548.22;6249249;22;20009;-75
2023/05/18 05:55:50;;;;;;;0.00;0.00;;;;;;;13.37;71.17;101547.34;6244288;22;20010;-77
2023/05/18 05:58:16;;;;;;;0.00;0.00;;;;;;;13.53;70.17;101547.53;6141035;23;20013;-75
2023/05/18 06:00:42;;;;;;;0.00;0.00;;;;;;;13.61;70.40;101552.56;6139679;23;20404;-75
2023/05/18 06:03:08;;;;;;;0.00;0.00;;;;;;;13.65;70.12;101548.19;6112866;23;20006;-76
2023/05/18 06:05:33;;;;;;;0.00;0.00;;;;;;;13.76;69.62;101549.13;6247923;22;20009;-76
2023/05/18 06:07:59;;;;;;;0.00;0.00;;;;;;;13.83;69.60;101551.66;6114382;23;20013;-75
2023/05/18 06:10:24;;;;;;;0.00;0.00;;;;;;;13.93;69.69;101557.25;6143645;23;20348;-76
2023/05/18 06:12:50;;;;;;;0.00;0.00;;;;;;;14.01;69.37;101554.03;6247476;22;20018;-75
2023/05/18 06:15:15;;;;;;;0.00;0.00;;;;;;;14.01;69.48;101554.03;6140642;23;20009;-74
2023/05/18 06:17:42;;;;;;;0.00;0.00;;;;;;;14.08;69.30;101562.91;6143768;22;20331;-75
2023/05/18 06:20:09;;;;;;;0.00;0.00;;;;;;;14.07;69.17;101561.22;6267769;22;20035;-75
2023/05/18 06:22:35;;;;;;;0.00;0.00;;;;;;;14.13;69.02;101560.19;6248602;22;20010;-76
2023/05/18 06:25:00;;;;;;;0.00;0.00;;;;;;;14.20;69.40;101556.41;6142162;23;20090;-75
2023/05/18 06:27:26;;;;;;;0.00;0.00;;;;;;;14.24;68.63;101563.03;6144826;23;20010;-75
2023/05/18 06:29:51;;;;;;;0.00;0.00;;;;;;;14.25;69.05;101556.41;6244042;22;20016;-76
2023/05/18 06:32:17;;;;;;;0.00;0.00;;;;;;;14.28;68.60;101575.16;6144007;23;20006;-75
2023/05/18 06:34:44;;;;;;;0.00;0.00;;;;;;;14.16;69.45;101569.00;6249010;22;20021;-76
2023/05/18 06:37:10;;;;;;;0.00;0.00;;;;;;;14.03;69.16;101568.38;6140667;23;20009;-76
2023/05/18 06:39:36;;;;;;;0.00;0.00;;;;;;;14.03;69.38;101571.13;6141933;23;20344;-74
2023/05/18 06:42:01;;;;;;;0.00;0.00;;;;;;;13.99;69.83;101567.22;6143867;23;20094;-80
2023/05/18 06:44:34;;;;;;;0.00;0.00;;;;;;;14.16;69.37;101560.75;6146208;23;20002;-85
2023/05/18 06:47:00;;;;;;;0.00;0.00;;;;;;;14.53;69.07;101573.69;6150177;23;20084;-85
2023/05/18 06:49:28;;;;;;;0.00;0.00;;;;;;;14.66;68.13;101559.50;6246712;22;20068;-88
2023/05/18 06:51:53;;;;;;;0.00;0.00;;;;;;;15.07;67.91;101580.91;6130377;23;20493;-80
2023/05/18 06:54:19;;;;;;;0.00;0.00;;;;;;;15.22;67.45;101583.75;6232849;23;20009;-83
2023/05/18 06:56:51;;;;;;;0.00;0.00;;;;;;;15.31;67.07;101575.78;6282790;22;20070;-78
2023/05/18 06:59:17;;;;;;;0.00;0.00;;;;;;;15.52;66.67;101577.53;6151834;23;20016;-81
2023/05/18 07:01:45;;;;;;;0.00;0.00;;;;;;;15.56;66.02;101560.44;6150801;23;20106;-82
2023/05/18 07:04:10;;;;;;;0.00;0.00;;;;;;;15.88;65.76;101580.38;6148060;23;20025;-81
2023/05/18 07:06:36;;;;;;;0.00;0.00;;;;;;;15.91;65.06;101558.88;6246836;22;20042;-78
2023/05/18 07:09:03;;;;;;;0.00;0.00;;;;;;;15.87;64.79;101562.19;6274674;22;20386;-81
2023/05/18 07:11:28;;;;;;;0.00;0.00;;;;;;;15.88;64.60;101571.28;6139838;23;20167;-78
2023/05/18 07:13:54;;;;;;;0.00;0.00;;;;;;;15.78;64.54;101563.81;6279823;22;20032;-80
2023/05/18 07:16:21;;;;;;;0.00;0.00;;;;;;;15.78;64.69;101574.00;6243422;22;20029;-80
2023/05/18 07:18:47;;;;;;;0.00;0.00;;;;;;;15.63;64.90;101577.56;6249572;22;20005;-78
2023/05/18 07:21:30;;;;;;;0.00;0.00;;;;;;;15.80;64.89;101605.75;6121824;23;20031;-79
2023/05/18 07:23:56;;;;;;;0.00;0.00;;;;;;;15.65;64.90;101578.94;6121115;23;20029;-80
2023/05/18 07:26:21;;;;;;;0.00;0.00;;;;;;;15.83;64.99;101594.16;6142787;23;20440;-80
2023/05/18 07:28:48;;;;;;;0.00;0.00;;;;;;;16.04;65.19;101596.94;6246800;22;20096;-79
2023/05/18 07:31:15;;;;;;;0.00;0.00;;;;;;;16.41;64.46;101604.13;6144233;23;20025;-79
2023/05/18 07:33:43;;;;;;;0.00;0.00;;;;;;;16.70;64.35;101592.50;6117483;23;20074;-80
2023/05/18 07:36:08;;;;;;;0.00;0.00;;;;;;;16.88;62.96;101580.91;6148719;23;20084;-78
2023/05/18 07:38:34;;;;;;;0.00;0.00;;;;;;;17.21;62.02;101600.69;6150175;23;20017;-78
2023/05/18 07:41:00;;;;;;;0.00;0.00;;;;;;;17.12;61.84;101585.78;6146081;23;20020;-80
2023/05/18 07:43:25;;;;;;;0.00;0.00;;;;;;;17.25;61.90;101604.53;6252399;22;20506;-80
2023/05/18 07:45:50;;;;;;;0.00;0.00;;;;;;;17.16;61.05;101591.59;6247932;22;20048;-79
2023/05/18 07:48:26;;;;;;;0.00;0.00;;;;;;;17.00;61.08;101557.66;6244756;22;20320;-79
2023/05/18 07:51:03;;;;;;;;;;;;;;;;;;;;;
2023/05/18 07:56:39;;;;;;;0.00;0.00;;;;;;;18.05;59.75;101557.66;6132247;23;20344;-79
2023/05/18 08:03:05;;;;;;;0.00;0.00;;;;;;;18.89;57.47;101592.59;6151794;23;20010;-80
2023/05/18 08:05:34;;;;;;;0.00;0.00;;;;;;;18.93;56.69;101583.41;6213914;22;20013;-79
2023/05/18 08:07:59;;;;;;;0.00;0.00;;;;;;;18.86;56.19;101577.38;6143617;23;20047;-78
2023/05/18 08:10:27;;;;;;;0.00;0.00;;;;;;;18.60;56.14;101557.41;6145315;23;20009;-79
2023/05/18 08:12:53;;;;;;;0.00;0.00;;;;;;;18.82;56.67;101592.91;6142419;23;20005;-79
2023/05/18 08:15:18;;;;;;;0.00;0.00;;;;;;;19.01;56.28;101602.16;6123673;22;20317;-85
2023/05/18 08:17:46;;;;;;;0.00;0.00;;;;;;;19.05;55.55;101585.75;6230799;23;20006;-83
2023/05/18 08:20:11;;;;;;;0.00;0.00;;;;;;;19.20;55.02;101579.19;6248373;22;20021;-82
2023/05/18 08:22:37;;;;;;;0.00;0.00;;;;;;;19.48;54.54;101579.41;6150126;23;20013;-84
2023/05/18 08:25:03;;;;;;;0.00;0.00;;;;;;;19.44;54.39;101584.72;6123038;23;20013;-80
2023/05/18 08:27:30;;;;;;;0.00;0.00;;;;;;;19.51;54.47;101585.19;6222291;23;20717;-79
2023/05/18 08:29:56;;;;;;;0.00;0.00;;;;;;;19.78;54.10;101591.19;6219268;22;20017;-79
2023/05/18 08:32:21;;;;;;;0.00;0.00;;;;;;;20.05;53.45;101579.44;6248759;22;20009;-79
2023/05/18 08:34:50;;;;;;;0.00;0.00;;;;;;;20.21;52.68;101582.78;6248800;22;20063;-79
2023/05/18 08:37:15;;;;;;;0.00;0.00;;;;;;;20.29;52.20;101592.38;6217254;23;20014;-78
2023/05/18 08:39:40;;;;;;;0.00;0.00;;;;;;;20.52;52.01;101587.81;6273532;22;20332;-79
2023/05/18 08:42:21;;;;;;;0.00;0.00;;;;;;;20.70;51.28;101588.88;6275281;22;20009;-79
2023/05/18 08:45:19;;;;;;;0.00;0.00;;;;;;;20.98;51.00;101594.47;6143854;23;19998;-78
2023/05/18 08:47:47;;;;;;;0.00;0.00;;;;;;;20.98;50.80;101598.06;6141213;22;20006;-79
2023/05/18 08:50:19;;;;;;;0.00;0.00;;;;;;;21.19;50.98;101592.94;6143260;23;20005;-79
2023/05/18 08:52:53;;;;;;;0.00;0.00;;;;;;;21.55;49.93;101591.34;6139368;23;20028;-78
2023/05/18 08:55:19;;;;;;;0.00;0.00;;;;;;;21.91;48.56;101593.31;6141469;23;20116;-79
2023/05/18 08:57:56;;;;;;;0.00;0.00;;;;;;;22.37;47.26;101591.38;6116237;23;20033;-79
2023/05/18 09:00:23;;;;;;;0.00;0.00;;;;;;;22.78;46.28;101588.34;6143460;23;20017;-79
2023/05/18 09:02:49;;;;;;;0.00;0.00;;;;;;;23.09;45.71;101587.47;6139647;23;20013;-81
2023/05/18 09:05:15;;;;;;;0.00;0.00;;;;;;;23.15;44.45;101579.81;6142569;23;20016;-79
2023/05/18 09:07:42;;;;;;;0.00;0.00;;;;;;;23.28;44.41;101580.84;6247529;22;20009;-79
2023/05/18 09:10:15;;;;;;;0.00;0.00;;;;;;;23.48;43.58;101577.44;6115017;23;20043;-79
2023/05/18 09:12:42;;;;;;;0.00;0.00;;;;;;;23.45;43.96;101583.66;6143268;23;20070;-79
2023/05/18 09:15:09;;;;;;;0.00;0.00;;;;;;;23.28;43.54;101572.47;6139572;23;20097;-80
2023/05/18 09:17:35;;;;;;;0.00;0.00;;;;;;;23.17;42.48;101556.03;6118412;23;20005;-79
2023/05/18 09:20:00;;;;;;;0.00;0.00;;;;;;;23.15;42.48;101580.63;6141161;23;20021;-79
2023/05/18 09:22:26;;;;;;;0.00;0.00;;;;;;;23.35;42.36;101581.19;6275721;22;20523;-79
2023/05/18 09:24:52;;;;;;;0.00;0.00;;;;;;;23.85;42.21;101594.69;6117276;23;20006;-79
2023/05/18 09:27:17;;;;;;;0.00;0.00;;;;;;;24.05;42.36;101584.06;6121016;23;20039;-79
2023/05/18 09:29:54;;;;;;;0.00;0.00;;;;;;;24.51;41.68;101590.84;6145681;23;20009;-78
2023/05/18 09:32:23;;;;;;;0.00;0.00;;;;;;;25.07;41.24;101590.84;6147269;23;20098;-79
2023/05/18 09:34:49;;;;;;;0.00;0.00;;;;;;;25.41;40.55;101577.84;6145683;23;20013;-78
2023/05/18 09:37:18;;;;;;;0.00;0.00;;;;;;;25.50;39.47;101577.78;6138705;22;20032;-79
2023/05/18 09:39:56;;;;;;;0.00;0.00;;;;;;;25.37;39.77;101582.47;6144819;23;20444;-76
2023/05/18 09:42:25;;;;;;;0.00;0.00;;;;;;;24.93;40.41;101584.66;6262842;22;20012;-75
2023/05/18 09:44:51;;;;;;;0.00;0.00;;;;;;;24.62;40.19;101580.19;6147829;23;20096;-80
2023/05/18 09:47:16;;;;;;;0.00;0.00;;;;;;;24.43;40.42;101572.16;6277267;22;20451;-76
2023/05/18 09:49:42;;;;;;;0.00;0.00;;;;;;;24.55;40.29;101580.66;6119565;22;20115;-76
2023/05/18 09:52:12;;;;;;;0.00;0.00;;;;;;;24.68;40.41;101575.22;6251355;22;20074;-76
2023/05/18 09:54:41;;;;;;;0.00;0.00;;;;;;;24.98;40.27;101587.25;6143171;23;20092;-77
2023/05/18 09:57:07;;;;;;;0.00;0.00;;;;;;;25.02;39.37;101576.22;6274671;22;20005;-76
2023/05/18 09:59:35;;;;;;;0.00;0.00;;;;;;;25.22;39.80;101586.66;6143129;23;19998;-76
2023/05/18 10:02:06;;;;;;;0.00;0.00;;;;;;;25.57;39.20;101592.06;6149543;23;20044;-76
2023/05/18 10:04:40;;;;;;;0.00;0.00;;;;;;;25.53;38.78;101579.09;6144006;23;20005;-76
2023/05/18 10:07:16;;;;;;;0.00;0.00;;;;;;;26.02;38.51;101590.56;6149998;23;20005;-76
2023/05/18 10:09:43;;;;;;;0.00;0.00;;;;;;;26.03;37.05;101597.81;6146762;23;20064;-77
2023/05/18 10:12:16;;;;;;;0.00;0.00;;;;;;;25.99;36.91;101584.78;6148324;23;20005;-76
2023/05/18 10:14:44;;;;;;;0.00;0.00;;;;;;;25.84;36.15;101578.66;6268600;22;20010;-76
2023/05/18 10:17:14;;;;;;;0.00;0.00;;;;;;;26.35;35.74;101588.94;6276967;22;20036;-75
2023/05/18 10:19:40;;;;;;;0.00;0.00;;;;;;;26.65;35.10;101584.78;6145627;23;20328;-75
2023/05/18 10:22:07;;;;;;;0.00;0.00;;;;;;;26.59;34.77;101590.97;6277383;22;20013;-76
2023/05/18 10:24:37;;;;;;;0.00;0.00;;;;;;;26.68;34.42;101579.66;6148796;23;20002;-76
2023/05/18 10:27:06;;;;;;;0.00;0.00;;;;;;;26.73;34.22;101587.88;6146096;23;20001;-75
2023/05/18 10:29:33;;;;;;;0.00;0.00;;;;;;;27.36;33.48;101592.34;6123353;23;20067;-76
2023/05/18 10:32:02;;;;;;;0.00;0.00;;;;;;;27.78;32.32;101583.59;6148766;23;20096;-74
2023/05/18 10:34:35;;;;;;;0.00;0.00;;;;;;;27.44;32.03;101585.78;6147744;23;20089;-74
2023/05/18 10:37:04;;;;;;;0.00;0.00;;;;;;;26.75;32.67;101577.13;6148348;23;20703;-75
2023/05/18 10:39:36;;;;;;;0.00;0.00;;;;;;;26.92;32.49;101579.69;6219738;23;20048;-75
2023/05/18 10:42:03;;;;;;;0.00;0.00;;;;;;;26.96;32.80;101572.22;6146221;23;20313;-76
2023/05/18 10:44:30;;;;;;;0.00;0.00;;;;;;;27.89;31.09;101584.75;6248812;22;20500;-75
2023/05/18 10:46:55;;;;;;;0.00;0.00;;;;;;;30.26;28.73;101571.97;6122315;23;20446;-76
2023/05/18 10:49:24;;;;;;;0.00;0.00;;;;;;;32.86;26.68;101585.69;6144990;23;20014;-75
2023/05/18 10:51:54;;;;;;;0.00;0.00;;;;;;;34.78;24.95;101590.19;6147899;23;20017;-76
2023/05/18 10:54:23;;;;;;;0.00;0.00;;;;;;;36.53;23.80;101584.31;6145415;23;20009;-76
2023/05/18 10:56:52;;;;;;;0.00;0.00;;;;;;;37.18;21.14;101581.72;6148790;23;20024;-75
2023/05/18 10:59:19;;;;;;;0.00;0.00;;;;;;;37.52;21.13;101600.13;6147913;23;20075;-76
2023/05/18 11:01:47;;;;;;;0.00;0.00;;;;;;;38.20;20.22;101595.59;6148295;23;20078;-75
2023/05/18 11:04:12;;;;;;;0.00;0.00;;;;;;;37.46;18.79;101587.56;6147743;23;20001;-74
2023/05/18 11:06:39;;;;;;;0.00;0.00;;;;;;;36.41;20.20;101579.13;6141328;23;20012;-75
2023/05/18 11:09:04;;;;;;;0.00;0.00;;;;;;;36.18;20.35;101577.63;6120660;23;20005;-75
2023/05/18 11:11:49;;;;;;;0.00;0.00;;;;;;;37.41;19.18;101590.88;6244309;22;20088;-75
2023/05/18 11:14:27;;;;;;;0.00;0.00;;;;;;;39.30;18.13;101588.47;6144351;23;20013;-73
2023/05/18 11:16:53;;;;;;;0.00;0.00;;;;;;;40.93;17.07;101585.66;6142089;23;20059;-75
2023/05/18 11:19:25;;;;;;;0.00;0.00;;;;;;;42.12;16.55;101590.84;6143715;23;20336;-75
2023/05/18 11:21:52;;;;;;;0.00;0.00;;;;;;;42.67;16.63;101584.97;6113956;23;20016;-75
2023/05/18 11:24:20;;;;;;;0.00;0.00;;;;;;;43.66;15.49;101576.06;6222509;23;20006;-75
2023/05/18 11:26:48;;;;;;;0.00;0.00;;;;;;;41.49;16.30;101564.44;6141068;23;20005;-75
2023/05/18 11:29:21;;;;;;;0.00;0.00;;;;;;;39.90;17.52;101576.22;6273463;22;20595;-75
2023/05/18 11:31:56;;;;;;;0.00;0.00;;;;;;;41.39;17.00;101574.97;6138367;23;20011;-75
2023/05/18 11:34:46;;;;;;;0.00;0.00;;;;;;;41.05;17.31;101569.75;6142631;23;20002;-74
2023/05/18 11:37:13;;;;;;;0.00;0.00;;;;;;;42.44;16.67;101580.38;6143369;23;20009;-75